Open Full Screen Window  High Contrast Mode
Wind Gusting 30 knots
24
April 19, 2014 4:30 AM CDT
Weather Information
Wind Direction
  170 °
Wind Speed
  24 kt (28 mph)
Wind Gust
  30 kt (35 mph)
Altimeter
29.86 in
Visibility
10 SM
Temperature
12° C
54° F
Dewpoint
05° C
41° F
Humidity
63%
1hr Rain Fall
00.00 in.
24hr Rain Fall
00.00 in.
Sky Condition
Clear
VFR

METAR KMDS 190930Z AUTO 17024G30KT 10SM CLR 12/05 A2986 RMK AO2

*Background is not an actual portrayal of the airport.